KMANKALW

Guest
Details From KMAN - NAMPA MUNI
To KALW - Walla Walla Rgnl
Flight Number -
Tags generated
Created
Modified
Stats Distance 172 nm / 318 km
Max Altitude 16,700 ft / 5,090 m
Waypoints 3
Social Downloads 0
Likes 0
Share VATSIM

Download

Looking for another format? Having issues loading an existing format? Contact us
Advertisement - Login to hide

Notes

Basic altitude profile: - Ascent Rate: 2500ft/min - Ascent Speed: 250kts - Cruise Altitude: 35000ft - Cruise Speed: 420kts - Descent Rate: 1500ft/min - Descent Speed: 250kts

Route

KMAN BKE KALW

ID Type Via Altitude Latitude Longitude Leg Dist Tot Dist Heading (true) Name
O KMAN APT - 0 ft / 0 m 43.58134˚ -116.52306˚ - 0 nm - NAMPA MUNI
BKE VOR - 16,700 ft / 5,090 m 44.84059˚ -117.80786˚ 93 nm 93 nm 324° / 323° -
O KALW APT - 0 ft / 0 m 46.09491˚ -118.28914˚ 78 nm 171 nm 345° / 345° Walla Walla Rgnl

Altitude Profile

Advertisement - Login to hide

Weather


0- 5 10 15 20 25 30 35+ Temperature / ° C

Clouds and Precipitation
Forecast for 2017-12-12 12:00 UTC. Updated 37 minutes ago

Ground ~20,000 ft ~40,000 ft Winds

KMAN

Details ICAO KMAN
Name NAMPA MUNI
Region United States
Timezone America/Boise (UTC-7.0)
Stats Elevation 2,537 ft / 773 m (AMSL)
Location 43.581342° -116.523062°
Runways 1
Magnetic Variation 13.451° E

METAR

KMAN 120935Z AUTO 00000KT 8SM OVC010 M04/M04 A3070 RMK A01

Decode

TAF

Not found

Departure Runways

ID Width Length Bearing (true) Bearing (mag) Surface Threshold Offset Overrun Length
11 75 ft / 23 m 4,994 ft / 1,522 m 125.74° 112.29° Asphalt 0 ft / 0 m 0 ft / 0 m
29 75 ft / 23 m 4,994 ft / 1,522 m 305.76° 292.31° Asphalt 0 ft / 0 m 0 ft / 0 m

KALW

Details ICAO KALW (ALW)
Name Walla Walla Rgnl
Region United States
Timezone America/Los_Angeles (UTC-8.0)
Stats Elevation 1,205 ft / 367 m (AMSL)
Location 46.094914° -118.289140°
Runways 3
Magnetic Variation 14.468° E

METAR

KALW 120853Z AUTO 09005KT 10SM OVC016 M01/M05 A3065 RMK AO2 SLP395 T10111050 50003

Decode

TAF

KALW 120523Z 1206/1306 VRB04KT 6SM BR OVC010 FM121800 VRB04KT P6SM OVC015

Decode

Destination Runways

ID Width Length Bearing (true) Bearing (mag) Surface Threshold Offset Overrun Length
02 151 ft / 46 m 6,524 ft / 1,988 m 36.09° 21.62° Asphalt 0 ft / 0 m 1,161 ft / 354 m
07 151 ft / 46 m 4,475 ft / 1,364 m 89.67° 75.20° Asphalt 0 ft / 0 m 0 ft / 0 m
16 151 ft / 46 m 6,605 ft / 2,013 m 179.68° 165.21° Asphalt 0 ft / 0 m 0 ft / 0 m
20 151 ft / 46 m 6,524 ft / 1,988 m 216.11° 201.64° Asphalt 0 ft / 0 m 1,027 ft / 313 m
25 151 ft / 46 m 4,475 ft / 1,364 m 269.68° 255.21° Asphalt 0 ft / 0 m 1,959 ft / 597 m
34 151 ft / 46 m 6,605 ft / 2,013 m 359.68° 345.21° Asphalt 659 ft / 201 m 0 ft / 0 m

Approach Navaids

Runway Type Ident Frequency Range Bearing (true) Bearing (mag) Slope Elevation
20 Localiser IALW 111.70 MHz 18 nm / 33 km 216.09° 201.62° - 1,148 ft / 350 m (AMSL)
20 Glidescope IALW 111.70 MHz 10 nm / 19 km 216.10° 201.63° 3.00° 1,193 ft / 364 m (AMSL)

Popular Alternatives